sensor_id;sensor_type;location;lat;lon;timestamp;temperature;humidity
57664;DHT22;43493;53.098;6.064;2022-10-16T10:45:57;15.50;99.90
57664;DHT22;43493;53.098;6.064;2022-10-16T17:28:05;13.50;99.90
57664;DHT22;43493;53.098;6.064;2022-10-16T17:30:32;13.50;99.90
57664;DHT22;43493;53.098;6.064;2022-10-16T17:33:01;13.40;99.90
57664;DHT22;43493;53.098;6.064;2022-10-16T17:35:27;13.40;99.90
57664;DHT22;43493;53.098;6.064;2022-10-16T17:37:53;13.40;99.90
57664;DHT22;43493;53.098;6.064;2022-10-16T17:40:19;13.40;99.90
57664;DHT22;43493;53.098;6.064;2022-10-16T17:42:45;13.40;99.90
57664;DHT22;43493;53.098;6.064;2022-10-16T17:45:13;13.30;99.90
57664;DHT22;43493;53.098;6.064;2022-10-16T17:47:39;13.30;99.90
57664;DHT22;43493;53.098;6.064;2022-10-16T17:50:07;13.20;99.90
57664;DHT22;43493;53.098;6.064;2022-10-16T17:52:33;13.20;99.90
57664;DHT22;43493;53.098;6.064;2022-10-16T17:54:59;13.20;99.90
57664;DHT22;43493;53.098;6.064;2022-10-16T17:57:24;13.20;99.90
57664;DHT22;43493;53.098;6.064;2022-10-16T17:59:50;13.10;99.90
57664;DHT22;43493;53.098;6.064;2022-10-16T18:02:16;13.10;99.90
57664;DHT22;43493;53.098;6.064;2022-10-16T18:04:43;13.10;99.90
57664;DHT22;43493;53.098;6.064;2022-10-16T18:07:08;13.10;99.90
57664;DHT22;43493;53.098;6.064;2022-10-16T18:09:34;13.10;99.90
57664;DHT22;43493;53.098;6.064;2022-10-16T18:12:00;13.10;99.90
57664;DHT22;43493;53.098;6.064;2022-10-16T18:14:28;13.10;99.90
57664;DHT22;43493;53.098;6.064;2022-10-16T18:16:55;13.10;99.90
57664;DHT22;43493;53.098;6.064;2022-10-16T18:19:21;13.10;99.90
57664;DHT22;43493;53.098;6.064;2022-10-16T18:21:47;13.10;99.90
57664;DHT22;43493;53.098;6.064;2022-10-16T18:24:17;13.10;99.90
57664;DHT22;43493;53.098;6.064;2022-10-16T18:26:44;13.10;99.90
57664;DHT22;43493;53.098;6.064;2022-10-16T18:29:11;13.10;99.90
57664;DHT22;43493;53.098;6.064;2022-10-16T18:31:38;13.10;99.90
57664;DHT22;43493;53.098;6.064;2022-10-16T18:34:04;13.00;99.90
57664;DHT22;43493;53.098;6.064;2022-10-16T18:36:32;13.00;99.90
57664;DHT22;43493;53.098;6.064;2022-10-16T18:38:59;13.00;99.90
57664;DHT22;43493;53.098;6.064;2022-10-16T18:41:26;13.00;99.90
57664;DHT22;43493;53.098;6.064;2022-10-16T18:43:52;13.00;99.90
57664;DHT22;43493;53.098;6.064;2022-10-16T18:46:24;13.00;99.90
57664;DHT22;43493;53.098;6.064;2022-10-16T18:48:50;12.90;99.90
57664;DHT22;43493;53.098;6.064;2022-10-16T18:51:24;13.00;99.90
57664;DHT22;43493;53.098;6.064;2022-10-16T18:53:53;12.90;99.90
57664;DHT22;43493;53.098;6.064;2022-10-16T18:56:20;12.90;99.90
57664;DHT22;43493;53.098;6.064;2022-10-16T18:58:47;12.90;99.90
57664;DHT22;43493;53.098;6.064;2022-10-16T19:01:15;12.90;99.90
57664;DHT22;43493;53.098;6.064;2022-10-16T19:03:41;12.90;99.90
57664;DHT22;43493;53.098;6.064;2022-10-16T19:06:10;12.90;99.90
57664;DHT22;43493;53.098;6.064;2022-10-16T19:08:37;12.90;99.90
57664;DHT22;43493;53.098;6.064;2022-10-16T19:11:05;12.90;99.90
57664;DHT22;43493;53.098;6.064;2022-10-16T19:13:31;12.90;99.90
57664;DHT22;43493;53.098;6.064;2022-10-16T19:15:57;12.90;99.90
